Aeroporto :
LOGIN :

Iscrizione | Disclaimer

   EN    FR    IT 

 










Sommario :    VFR   VFR Marginale   IFR   IFR Intensivo   IFR Molto Intensivo
Visibilità : 
Base nubi : 
>= 8 km
>= 3000ft
5 / 8 km
1000 / 3000 ft
1500m / 5 km
500 / 1000 ft
800 / 1500m
200 / 500 ft
< 800m
< 200 ft
Simboli :   Temporali  Nebbia  Neve Forte  Precipitazioni Forti  Vento > 20 kt
SIGMETs :   Varie  Temporali  Ghiacco  Turbolenza  Onda orograficha  Ceneri Vulcaniche







- Altitudine del aeroporto : 26 ft
- Codice IATA : GLA
- Carte del aeroporto


EGPF - Glasgow

ULTIMO METAR :
  • 162320Z AUTO 18014KT 9999 OVC012 11/09 Q1008

METARs OBSOLETI :
  • 162250Z AUTO 18018G29KT 9999 BKN013 OVC018 11/09 Q1009
  • 162220Z AUTO 17008KT 110V210 9999 BKN014 OVC019 11/08 Q1009
  • 162150Z AUTO 17007KT 140V210 9999 BKN015 OVC020 10/07 Q1010
  • 162120Z AUTO 15005KT 120V200 9999 BKN017 10/07 Q1010
  • 162050Z AUTO 18008KT 9999 BKN047 10/06 Q1010
  • 162020Z AUTO 16007KT 130V190 9999 SCT021 10/06 Q1011

TAF TAF EGPF
Valido dal 16 a 18 ore il 17 a 18 ore UTC


161655Z 1618/1718 20012KT 9999 SCT025
TEMPO 1620/1710 BKN012
PROB40
TEMPO 1621/1624 BKN006
TEMPO 1622/1703 18015G25KT
TEMPO 1710/1715 6000 -RA BKN014
PROB40
TEMPO 1710/1713 4000 RA BKN008
PROB30
TEMPO 1710/1718 19015G25KT
ATIS : +44 141 887 7449
Nessun NOTAM noto per questo aeroporto.



MetMap, La meteo Aeronautica in un colpo d'occhio ! - Copyright ORBIFLY Dicembre 2007 - Disclaimer

ORBIFLY MET'MAP TEAM :

Programmazione e sviluppo : Alexandra Zaïnal
Concezione e sviluppo : Baudouin d'Aumeries
Co-Programmazione e sviluppo : Marc-Olivier Méhu
Supporto tecnico e logistico : Manuel Goepfert
Aiuto per la traduzione : Arnaldo La Scala

Contatto : metmap@orbifly.com




FONTI E CREDITI :

   NOAA